Terminal Aerodrome Forecast
Issued by NWS Greer, SC

Home | Current Version | Previous Version | Text Only | Print | Product List | Glossary On
Versions: 1 2 3 4 5 6 7 8 9 10 11 12 13 14 15 16 17 18 19 20 21 22 23 24 25 26 27 28 29 30
000
FTUS42 KGSP 212325
TAFCLT
TAF
KCLT 212325Z 2200/2224 05007KT 6SM BR VCSH BKN005 OVC025
     FM220300 34003KT 3SM BR OVC003
     FM220700 03004KT 1SM BR VCSH OVC002
     FM221000 04003KT 1/2SM -SHRA FG OVC002 PROB30 2210/2214 2SM
      TSRA BR OVC004CB
     FM221500 12004KT 3/4SM -SHRA BR OVC003
     FM221800 15005KT 4SM BR VCSH OVC007
     FM222100 17008KT 6SM TSRA BR SCT007 OVC014CB=

USA.gov is the U.S. government's official web portal to all federal, state and local government web resources and services.